sensor_id;sensor_type;location;lat;lon;timestamp;P1;durP1;ratioP1;P2;durP2;ratioP2
14748;SDS011;7466;53.574;9.976;2023-06-19T00:01:40;6.33;;;5.93;;
14748;SDS011;7466;53.574;9.976;2023-06-19T00:04:13;6.20;;;5.80;;
14748;SDS011;7466;53.574;9.976;2023-06-19T00:06:40;6.47;;;5.77;;
14748;SDS011;7466;53.574;9.976;2023-06-19T00:09:06;6.27;;;5.73;;
14748;SDS011;7466;53.574;9.976;2023-06-19T00:11:34;6.90;;;6.40;;
14748;SDS011;7466;53.574;9.976;2023-06-19T00:14:02;6.57;;;5.93;;
14748;SDS011;7466;53.574;9.976;2023-06-19T00:16:30;8.70;;;5.77;;
14748;SDS011;7466;53.574;9.976;2023-06-19T00:18:57;6.63;;;6.03;;
14748;SDS011;7466;53.574;9.976;2023-06-19T00:21:24;6.43;;;6.03;;
14748;SDS011;7466;53.574;9.976;2023-06-19T00:23:52;6.70;;;6.07;;
14748;SDS011;7466;53.574;9.976;2023-06-19T00:26:19;6.80;;;6.13;;
14748;SDS011;7466;53.574;9.976;2023-06-19T00:28:47;6.67;;;6.17;;
14748;SDS011;7466;53.574;9.976;2023-06-19T00:31:15;6.73;;;6.10;;
14748;SDS011;7466;53.574;9.976;2023-06-19T00:33:43;7.17;;;6.17;;
14748;SDS011;7466;53.574;9.976;2023-06-19T00:36:12;6.57;;;6.07;;
14748;SDS011;7466;53.574;9.976;2023-06-19T00:38:40;7.00;;;6.40;;
14748;SDS011;7466;53.574;9.976;2023-06-19T00:41:07;6.63;;;6.03;;
14748;SDS011;7466;53.574;9.976;2023-06-19T00:43:34;6.80;;;6.30;;
14748;SDS011;7466;53.574;9.976;2023-06-19T00:46:01;7.00;;;6.43;;
14748;SDS011;7466;53.574;9.976;2023-06-19T00:48:30;7.27;;;6.57;;
14748;SDS011;7466;53.574;9.976;2023-06-19T00:50:58;6.57;;;6.07;;
14748;SDS011;7466;53.574;9.976;2023-06-19T00:53:26;7.13;;;6.53;;
14748;SDS011;7466;53.574;9.976;2023-06-19T00:55:53;6.23;;;5.73;;
14748;SDS011;7466;53.574;9.976;2023-06-19T00:58:22;7.47;;;6.87;;
14748;SDS011;7466;53.574;9.976;2023-06-19T01:00:52;7.17;;;6.53;;
14748;SDS011;7466;53.574;9.976;2023-06-19T01:03:19;6.90;;;6.47;;
14748;SDS011;7466;53.574;9.976;2023-06-19T01:05:47;6.60;;;6.20;;
14748;SDS011;7466;53.574;9.976;2023-06-19T01:08:18;6.60;;;6.03;;
14748;SDS011;7466;53.574;9.976;2023-06-19T01:11:02;6.77;;;6.27;;
14748;SDS011;7466;53.574;9.976;2023-06-19T01:13:31;7.33;;;6.70;;
14748;SDS011;7466;53.574;9.976;2023-06-19T01:16:08;6.97;;;6.27;;
14748;SDS011;7466;53.574;9.976;2023-06-19T01:18:37;7.50;;;6.90;;
14748;SDS011;7466;53.574;9.976;2023-06-19T01:21:12;7.10;;;6.60;;
14748;SDS011;7466;53.574;9.976;2023-06-19T01:23:41;7.17;;;6.57;;
14748;SDS011;7466;53.574;9.976;2023-06-19T01:26:10;7.10;;;6.60;;
14748;SDS011;7466;53.574;9.976;2023-06-19T01:28:38;7.70;;;7.10;;
14748;SDS011;7466;53.574;9.976;2023-06-19T01:31:11;7.00;;;6.60;;
14748;SDS011;7466;53.574;9.976;2023-06-19T01:33:41;7.87;;;7.27;;
14748;SDS011;7466;53.574;9.976;2023-06-19T01:36:10;7.03;;;6.43;;
14748;SDS011;7466;53.574;9.976;2023-06-19T01:38:37;6.77;;;6.27;;
14748;SDS011;7466;53.574;9.976;2023-06-19T01:41:07;7.83;;;7.13;;
14748;SDS011;7466;53.574;9.976;2023-06-19T01:43:35;7.27;;;6.60;;
14748;SDS011;7466;53.574;9.976;2023-06-19T01:46:04;7.70;;;7.10;;
14748;SDS011;7466;53.574;9.976;2023-06-19T01:48:30;7.10;;;6.60;;
14748;SDS011;7466;53.574;9.976;2023-06-19T01:50:57;7.97;;;7.40;;
14748;SDS011;7466;53.574;9.976;2023-06-19T01:53:24;7.10;;;6.60;;
14748;SDS011;7466;53.574;9.976;2023-06-19T01:55:51;7.63;;;6.87;;
14748;SDS011;7466;53.574;9.976;2023-06-19T01:58:19;7.17;;;6.47;;
14748;SDS011;7466;53.574;9.976;2023-06-19T02:00:46;7.53;;;6.97;;
14748;SDS011;7466;53.574;9.976;2023-06-19T02:03:13;9.27;;;7.30;;
14748;SDS011;7466;53.574;9.976;2023-06-19T02:05:39;7.63;;;7.03;;
14748;SDS011;7466;53.574;9.976;2023-06-19T02:08:06;7.70;;;7.17;;
14748;SDS011;7466;53.574;9.976;2023-06-19T02:10:33;7.77;;;7.27;;
14748;SDS011;7466;53.574;9.976;2023-06-19T02:13:00;7.73;;;7.00;;
14748;SDS011;7466;53.574;9.976;2023-06-19T02:15:28;7.53;;;6.93;;
14748;SDS011;7466;53.574;9.976;2023-06-19T02:17:55;7.80;;;7.20;;
14748;SDS011;7466;53.574;9.976;2023-06-19T02:20:22;8.20;;;7.40;;
14748;SDS011;7466;53.574;9.976;2023-06-19T02:22:50;7.63;;;7.07;;
14748;SDS011;7466;53.574;9.976;2023-06-19T02:25:17;8.00;;;7.40;;
14748;SDS011;7466;53.574;9.976;2023-06-19T02:27:45;7.67;;;7.23;;
14748;SDS011;7466;53.574;9.976;2023-06-19T02:30:12;7.97;;;7.37;;
14748;SDS011;7466;53.574;9.976;2023-06-19T02:32:41;7.83;;;7.23;;
14748;SDS011;7466;53.574;9.976;2023-06-19T02:35:08;8.33;;;7.70;;
14748;SDS011;7466;53.574;9.976;2023-06-19T02:37:36;8.07;;;7.47;;
14748;SDS011;7466;53.574;9.976;2023-06-19T02:40:03;7.63;;;7.20;;
14748;SDS011;7466;53.574;9.976;2023-06-19T02:42:31;7.70;;;7.20;;
14748;SDS011;7466;53.574;9.976;2023-06-19T02:44:58;9.33;;;7.70;;
14748;SDS011;7466;53.574;9.976;2023-06-19T02:47:28;8.13;;;7.63;;
14748;SDS011;7466;53.574;9.976;2023-06-19T02:49:57;7.53;;;7.00;;
14748;SDS011;7466;53.574;9.976;2023-06-19T02:52:24;8.30;;;7.70;;
14748;SDS011;7466;53.574;9.976;2023-06-19T02:54:51;7.93;;;7.43;;
14748;SDS011;7466;53.574;9.976;2023-06-19T02:57:18;9.67;;;8.30;;
14748;SDS011;7466;53.574;9.976;2023-06-19T02:59:45;8.93;;;8.33;;
14748;SDS011;7466;53.574;9.976;2023-06-19T03:02:12;8.90;;;8.30;;
14748;SDS011;7466;53.574;9.976;2023-06-19T03:04:39;8.73;;;8.07;;
14748;SDS011;7466;53.574;9.976;2023-06-19T03:07:08;9.00;;;8.20;;
14748;SDS011;7466;53.574;9.976;2023-06-19T03:09:34;9.07;;;8.47;;
14748;SDS011;7466;53.574;9.976;2023-06-19T03:12:02;8.83;;;8.13;;
14748;SDS011;7466;53.574;9.976;2023-06-19T03:14:29;8.97;;;8.17;;
14748;SDS011;7466;53.574;9.976;2023-06-19T03:16:56;8.23;;;7.67;;
14748;SDS011;7466;53.574;9.976;2023-06-19T03:19:22;8.53;;;8.03;;
14748;SDS011;7466;53.574;9.976;2023-06-19T03:21:49;9.03;;;8.40;;
14748;SDS011;7466;53.574;9.976;2023-06-19T03:24:17;8.83;;;8.13;;
14748;SDS011;7466;53.574;9.976;2023-06-19T03:26:44;8.67;;;8.00;;
14748;SDS011;7466;53.574;9.976;2023-06-19T03:29:11;9.23;;;8.57;;
14748;SDS011;7466;53.574;9.976;2023-06-19T03:31:38;8.43;;;7.93;;
14748;SDS011;7466;53.574;9.976;2023-06-19T03:34:05;7.90;;;7.40;;
14748;SDS011;7466;53.574;9.976;2023-06-19T03:36:32;9.20;;;8.40;;
14748;SDS011;7466;53.574;9.976;2023-06-19T03:38:58;8.70;;;7.97;;
14748;SDS011;7466;53.574;9.976;2023-06-19T03:41:27;8.83;;;8.13;;
14748;SDS011;7466;53.574;9.976;2023-06-19T03:43:54;9.50;;;8.60;;
14748;SDS011;7466;53.574;9.976;2023-06-19T03:46:20;9.20;;;8.50;;
14748;SDS011;7466;53.574;9.976;2023-06-19T03:48:47;9.10;;;8.40;;
14748;SDS011;7466;53.574;9.976;2023-06-19T03:51:14;9.00;;;8.37;;
14748;SDS011;7466;53.574;9.976;2023-06-19T03:53:41;9.53;;;8.60;;
14748;SDS011;7466;53.574;9.976;2023-06-19T03:56:08;9.13;;;8.57;;
14748;SDS011;7466;53.574;9.976;2023-06-19T03:58:36;8.47;;;7.87;;
14748;SDS011;7466;53.574;9.976;2023-06-19T04:01:03;9.20;;;8.50;;
14748;SDS011;7466;53.574;9.976;2023-06-19T04:03:30;9.33;;;8.73;;
14748;SDS011;7466;53.574;9.976;2023-06-19T04:05:57;9.20;;;8.60;;
14748;SDS011;7466;53.574;9.976;2023-06-19T04:08:24;8.93;;;8.43;;
14748;SDS011;7466;53.574;9.976;2023-06-19T04:10:51;8.77;;;8.17;;
14748;SDS011;7466;53.574;9.976;2023-06-19T04:13:17;8.90;;;8.20;;
14748;SDS011;7466;53.574;9.976;2023-06-19T04:15:46;9.10;;;8.30;;
14748;SDS011;7466;53.574;9.976;2023-06-19T04:18:13;9.00;;;8.50;;
14748;SDS011;7466;53.574;9.976;2023-06-19T04:20:39;9.47;;;8.87;;
14748;SDS011;7466;53.574;9.976;2023-06-19T04:23:06;9.23;;;8.53;;
14748;SDS011;7466;53.574;9.976;2023-06-19T04:25:33;9.57;;;8.97;;
14748;SDS011;7466;53.574;9.976;2023-06-19T04:28:00;9.10;;;8.30;;
14748;SDS011;7466;53.574;9.976;2023-06-19T04:30:28;8.87;;;8.27;;
14748;SDS011;7466;53.574;9.976;2023-06-19T04:32:56;9.30;;;8.50;;
14748;SDS011;7466;53.574;9.976;2023-06-19T04:35:24;9.33;;;8.70;;
14748;SDS011;7466;53.574;9.976;2023-06-19T04:37:50;10.00;;;9.30;;
14748;SDS011;7466;53.574;9.976;2023-06-19T04:40:17;9.30;;;8.70;;
14748;SDS011;7466;53.574;9.976;2023-06-19T04:42:44;9.70;;;9.07;;
14748;SDS011;7466;53.574;9.976;2023-06-19T04:45:11;8.83;;;8.23;;
14748;SDS011;7466;53.574;9.976;2023-06-19T04:47:38;9.27;;;8.57;;
14748;SDS011;7466;53.574;9.976;2023-06-19T04:50:07;9.40;;;8.70;;
14748;SDS011;7466;53.574;9.976;2023-06-19T04:52:34;9.83;;;8.97;;
14748;SDS011;7466;53.574;9.976;2023-06-19T04:55:02;9.63;;;8.93;;
14748;SDS011;7466;53.574;9.976;2023-06-19T04:57:30;9.40;;;8.70;;
14748;SDS011;7466;53.574;9.976;2023-06-19T04:59:57;10.03;;;9.20;;
14748;SDS011;7466;53.574;9.976;2023-06-19T05:02:24;10.10;;;9.30;;
14748;SDS011;7466;53.574;9.976;2023-06-19T05:04:51;10.17;;;9.17;;
14748;SDS011;7466;53.574;9.976;2023-06-19T05:07:19;9.33;;;8.50;;
14748;SDS011;7466;53.574;9.976;2023-06-19T05:09:46;9.50;;;8.77;;
14748;SDS011;7466;53.574;9.976;2023-06-19T05:12:12;9.67;;;8.97;;
14748;SDS011;7466;53.574;9.976;2023-06-19T05:14:39;9.77;;;8.97;;
14748;SDS011;7466;53.574;9.976;2023-06-19T05:17:06;10.17;;;9.17;;
14748;SDS011;7466;53.574;9.976;2023-06-19T05:19:34;10.53;;;8.90;;
14748;SDS011;7466;53.574;9.976;2023-06-19T05:22:01;9.40;;;8.70;;
14748;SDS011;7466;53.574;9.976;2023-06-19T05:24:29;9.77;;;8.90;;
14748;SDS011;7466;53.574;9.976;2023-06-19T05:26:56;9.83;;;9.07;;
14748;SDS011;7466;53.574;9.976;2023-06-19T05:29:23;9.30;;;8.70;;
14748;SDS011;7466;53.574;9.976;2023-06-19T05:31:49;10.00;;;9.20;;
14748;SDS011;7466;53.574;9.976;2023-06-19T05:34:16;10.20;;;9.47;;
14748;SDS011;7466;53.574;9.976;2023-06-19T05:36:43;9.67;;;9.07;;
14748;SDS011;7466;53.574;9.976;2023-06-19T05:39:12;9.23;;;8.63;;
14748;SDS011;7466;53.574;9.976;2023-06-19T05:41:40;10.03;;;9.13;;
14748;SDS011;7466;53.574;9.976;2023-06-19T05:44:08;9.50;;;8.73;;
14748;SDS011;7466;53.574;9.976;2023-06-19T05:46:39;9.40;;;8.63;;
14748;SDS011;7466;53.574;9.976;2023-06-19T05:49:06;9.40;;;8.80;;
14748;SDS011;7466;53.574;9.976;2023-06-19T05:51:32;9.40;;;8.73;;
14748;SDS011;7466;53.574;9.976;2023-06-19T05:53:59;10.73;;;9.60;;
14748;SDS011;7466;53.574;9.976;2023-06-19T05:56:28;11.70;;;9.83;;
14748;SDS011;7466;53.574;9.976;2023-06-19T05:58:57;10.70;;;9.70;;
14748;SDS011;7466;53.574;9.976;2023-06-19T06:01:24;10.43;;;9.53;;
14748;SDS011;7466;53.574;9.976;2023-06-19T06:03:53;10.33;;;9.37;;
14748;SDS011;7466;53.574;9.976;2023-06-19T06:06:20;12.93;;;10.23;;
14748;SDS011;7466;53.574;9.976;2023-06-19T06:08:46;12.07;;;9.77;;
14748;SDS011;7466;53.574;9.976;2023-06-19T06:11:14;10.47;;;9.63;;
14748;SDS011;7466;53.574;9.976;2023-06-19T06:13:41;10.63;;;9.60;;
14748;SDS011;7466;53.574;9.976;2023-06-19T06:16:09;12.00;;;10.27;;
14748;SDS011;7466;53.574;9.976;2023-06-19T06:18:36;10.57;;;9.50;;
14748;SDS011;7466;53.574;9.976;2023-06-19T06:21:03;11.00;;;10.00;;
14748;SDS011;7466;53.574;9.976;2023-06-19T06:23:29;11.07;;;10.03;;
14748;SDS011;7466;53.574;9.976;2023-06-19T06:25:56;13.47;;;10.20;;
14748;SDS011;7466;53.574;9.976;2023-06-19T06:28:27;11.23;;;10.43;;
14748;SDS011;7466;53.574;9.976;2023-06-19T06:30:54;13.70;;;10.90;;
14748;SDS011;7466;53.574;9.976;2023-06-19T06:33:22;13.27;;;11.63;;
14748;SDS011;7466;53.574;9.976;2023-06-19T06:35:49;12.67;;;10.87;;
14748;SDS011;7466;53.574;9.976;2023-06-19T06:38:16;13.97;;;10.70;;
14748;SDS011;7466;53.574;9.976;2023-06-19T06:40:43;16.00;;;11.20;;
14748;SDS011;7466;53.574;9.976;2023-06-19T06:43:10;15.50;;;11.60;;
14748;SDS011;7466;53.574;9.976;2023-06-19T06:45:36;13.33;;;10.97;;
14748;SDS011;7466;53.574;9.976;2023-06-19T06:48:04;18.47;;;12.07;;
14748;SDS011;7466;53.574;9.976;2023-06-19T06:50:33;13.60;;;11.70;;
14748;SDS011;7466;53.574;9.976;2023-06-19T06:53:00;13.47;;;12.03;;
14748;SDS011;7466;53.574;9.976;2023-06-19T06:55:28;12.50;;;11.30;;
14748;SDS011;7466;53.574;9.976;2023-06-19T06:57:54;12.63;;;11.20;;
14748;SDS011;7466;53.574;9.976;2023-06-19T07:00:21;15.90;;;11.60;;
14748;SDS011;7466;53.574;9.976;2023-06-19T07:02:48;12.67;;;11.67;;
14748;SDS011;7466;53.574;9.976;2023-06-19T07:05:16;12.17;;;10.63;;
14748;SDS011;7466;53.574;9.976;2023-06-19T07:07:44;15.70;;;12.23;;
14748;SDS011;7466;53.574;9.976;2023-06-19T07:10:13;13.33;;;11.77;;
14748;SDS011;7466;53.574;9.976;2023-06-19T07:12:47;12.80;;;11.23;;
14748;SDS011;7466;53.574;9.976;2023-06-19T07:15:14;12.70;;;11.45;;
14748;SDS011;7466;53.574;9.976;2023-06-19T07:17:42;12.20;;;11.10;;
14748;SDS011;7466;53.574;9.976;2023-06-19T07:20:13;11.87;;;10.77;;
14748;SDS011;7466;53.574;9.976;2023-06-19T07:22:40;12.33;;;11.10;;
14748;SDS011;7466;53.574;9.976;2023-06-19T07:25:11;12.50;;;11.10;;
14748;SDS011;7466;53.574;9.976;2023-06-19T07:27:40;11.70;;;10.77;;
14748;SDS011;7466;53.574;9.976;2023-06-19T07:30:07;12.73;;;11.10;;
14748;SDS011;7466;53.574;9.976;2023-06-19T07:32:35;12.10;;;11.03;;
14748;SDS011;7466;53.574;9.976;2023-06-19T07:35:02;11.75;;;10.82;;
14748;SDS011;7466;53.574;9.976;2023-06-19T07:37:29;11.73;;;10.70;;
14748;SDS011;7466;53.574;9.976;2023-06-19T07:39:56;11.85;;;10.77;;
14748;SDS011;7466;53.574;9.976;2023-06-19T07:42:25;10.82;;;10.05;;
14748;SDS011;7466;53.574;9.976;2023-06-19T07:44:52;12.07;;;10.95;;
14748;SDS011;7466;53.574;9.976;2023-06-19T07:47:19;11.73;;;10.63;;
14748;SDS011;7466;53.574;9.976;2023-06-19T07:49:46;11.75;;;10.68;;
14748;SDS011;7466;53.574;9.976;2023-06-19T07:52:13;12.43;;;10.90;;
14748;SDS011;7466;53.574;9.976;2023-06-19T07:54:51;12.30;;;10.93;;
14748;SDS011;7466;53.574;9.976;2023-06-19T07:57:19;16.33;;;11.02;;
14748;SDS011;7466;53.574;9.976;2023-06-19T07:59:47;12.57;;;10.90;;
14748;SDS011;7466;53.574;9.976;2023-06-19T08:02:15;11.73;;;10.60;;
14748;SDS011;7466;53.574;9.976;2023-06-19T08:04:42;11.75;;;10.75;;
14748;SDS011;7466;53.574;9.976;2023-06-19T08:07:09;12.35;;;11.15;;
14748;SDS011;7466;53.574;9.976;2023-06-19T08:09:36;11.77;;;10.88;;
14748;SDS011;7466;53.574;9.976;2023-06-19T08:12:03;11.85;;;10.82;;
14748;SDS011;7466;53.574;9.976;2023-06-19T08:14:30;12.60;;;11.55;;
14748;SDS011;7466;53.574;9.976;2023-06-19T08:16:58;15.50;;;11.40;;
14748;SDS011;7466;53.574;9.976;2023-06-19T08:19:25;13.23;;;11.50;;
14748;SDS011;7466;53.574;9.976;2023-06-19T08:21:52;12.60;;;11.25;;
14748;SDS011;7466;53.574;9.976;2023-06-19T08:24:19;11.80;;;10.63;;
14748;SDS011;7466;53.574;9.976;2023-06-19T08:26:45;12.65;;;11.35;;
14748;SDS011;7466;53.574;9.976;2023-06-19T08:29:16;12.82;;;11.73;;
14748;SDS011;7466;53.574;9.976;2023-06-19T08:31:43;12.18;;;11.07;;
14748;SDS011;7466;53.574;9.976;2023-06-19T08:34:11;12.77;;;11.73;;
14748;SDS011;7466;53.574;9.976;2023-06-19T08:36:37;12.30;;;11.20;;
14748;SDS011;7466;53.574;9.976;2023-06-19T08:39:04;12.38;;;11.13;;
14748;SDS011;7466;53.574;9.976;2023-06-19T08:41:33;12.15;;;11.15;;
14748;SDS011;7466;53.574;9.976;2023-06-19T08:44:03;12.52;;;11.18;;
14748;SDS011;7466;53.574;9.976;2023-06-19T08:46:30;12.25;;;11.15;;
14748;SDS011;7466;53.574;9.976;2023-06-19T08:48:57;12.50;;;11.40;;
14748;SDS011;7466;53.574;9.976;2023-06-19T08:51:27;12.75;;;11.68;;
14748;SDS011;7466;53.574;9.976;2023-06-19T08:53:56;12.82;;;11.63;;
14748;SDS011;7466;53.574;9.976;2023-06-19T08:56:26;19.67;;;11.18;;
14748;SDS011;7466;53.574;9.976;2023-06-19T08:58:53;12.18;;;10.82;;
14748;SDS011;7466;53.574;9.976;2023-06-19T09:01:20;11.70;;;10.63;;
14748;SDS011;7466;53.574;9.976;2023-06-19T09:03:52;12.13;;;11.07;;
14748;SDS011;7466;53.574;9.976;2023-06-19T09:06:20;11.82;;;10.88;;
14748;SDS011;7466;53.574;9.976;2023-06-19T09:08:58;17.85;;;10.80;;
14748;SDS011;7466;53.574;9.976;2023-06-19T09:11:25;13.73;;;10.65;;
14748;SDS011;7466;53.574;9.976;2023-06-19T09:13:55;13.75;;;11.13;;
14748;SDS011;7466;53.574;9.976;2023-06-19T09:16:23;12.73;;;10.73;;
14748;SDS011;7466;53.574;9.976;2023-06-19T09:19:02;12.38;;;11.18;;
14748;SDS011;7466;53.574;9.976;2023-06-19T09:21:28;15.77;;;11.35;;
14748;SDS011;7466;53.574;9.976;2023-06-19T09:24:03;12.70;;;11.48;;
14748;SDS011;7466;53.574;9.976;2023-06-19T09:26:30;13.60;;;10.82;;
14748;SDS011;7466;53.574;9.976;2023-06-19T09:28:57;13.18;;;11.88;;
14748;SDS011;7466;53.574;9.976;2023-06-19T09:31:31;11.77;;;10.68;;
14748;SDS011;7466;53.574;9.976;2023-06-19T09:36:25;13.57;;;11.40;;
14748;SDS011;7466;53.574;9.976;2023-06-19T09:38:52;13.05;;;11.07;;
14748;SDS011;7466;53.574;9.976;2023-06-19T09:41:22;11.90;;;11.00;;
14748;SDS011;7466;53.574;9.976;2023-06-19T09:43:52;12.95;;;11.63;;
14748;SDS011;7466;53.574;9.976;2023-06-19T09:46:23;12.15;;;10.98;;
14748;SDS011;7466;53.574;9.976;2023-06-19T09:48:56;12.27;;;11.13;;
14748;SDS011;7466;53.574;9.976;2023-06-19T09:51:29;12.75;;;11.60;;
14748;SDS011;7466;53.574;9.976;2023-06-19T09:53:58;12.65;;;11.65;;
14748;SDS011;7466;53.574;9.976;2023-06-19T09:56:29;12.63;;;11.38;;
14748;SDS011;7466;53.574;9.976;2023-06-19T10:01:38;12.10;;;11.07;;
14748;SDS011;7466;53.574;9.976;2023-06-19T10:04:08;12.43;;;11.32;;
14748;SDS011;7466;53.574;9.976;2023-06-19T10:06:42;12.30;;;11.05;;
14748;SDS011;7466;53.574;9.976;2023-06-19T10:09:09;12.25;;;11.23;;
14748;SDS011;7466;53.574;9.976;2023-06-19T10:11:48;14.88;;;11.18;;
14748;SDS011;7466;53.574;9.976;2023-06-19T10:14:18;12.18;;;11.02;;
14748;SDS011;7466;53.574;9.976;2023-06-19T10:16:45;11.73;;;10.65;;
14748;SDS011;7466;53.574;9.976;2023-06-19T10:19:13;11.77;;;10.88;;
14748;SDS011;7466;53.574;9.976;2023-06-19T10:21:44;12.93;;;11.18;;
14748;SDS011;7466;53.574;9.976;2023-06-19T10:24:15;12.02;;;10.85;;
14748;SDS011;7466;53.574;9.976;2023-06-19T10:26:54;10.75;;;9.95;;
14748;SDS011;7466;53.574;9.976;2023-06-19T10:29:24;11.32;;;10.43;;
14748;SDS011;7466;53.574;9.976;2023-06-19T10:31:52;11.13;;;10.23;;
14748;SDS011;7466;53.574;9.976;2023-06-19T10:34:32;11.68;;;10.70;;
14748;SDS011;7466;53.574;9.976;2023-06-19T10:37:02;11.20;;;10.30;;
14748;SDS011;7466;53.574;9.976;2023-06-19T10:39:32;11.88;;;10.82;;
14748;SDS011;7466;53.574;9.976;2023-06-19T10:42:00;10.88;;;9.98;;
14748;SDS011;7466;53.574;9.976;2023-06-19T10:44:30;11.50;;;10.48;;
14748;SDS011;7466;53.574;9.976;2023-06-19T10:47:00;11.55;;;10.75;;
14748;SDS011;7466;53.574;9.976;2023-06-19T10:49:27;10.95;;;10.05;;
14748;SDS011;7466;53.574;9.976;2023-06-19T10:51:54;11.40;;;10.60;;
14748;SDS011;7466;53.574;9.976;2023-06-19T10:54:25;11.52;;;10.13;;
14748;SDS011;7466;53.574;9.976;2023-06-19T10:56:57;10.98;;;10.18;;
14748;SDS011;7466;53.574;9.976;2023-06-19T10:59:32;11.18;;;10.25;;
14748;SDS011;7466;53.574;9.976;2023-06-19T11:02:00;11.20;;;10.35;;
14748;SDS011;7466;53.574;9.976;2023-06-19T11:04:26;11.13;;;10.18;;
14748;SDS011;7466;53.574;9.976;2023-06-19T11:06:55;11.15;;;10.45;;
14748;SDS011;7466;53.574;9.976;2023-06-19T11:09:22;11.38;;;10.27;;
14748;SDS011;7466;53.574;9.976;2023-06-19T11:11:50;10.65;;;9.77;;
14748;SDS011;7466;53.574;9.976;2023-06-19T11:14:17;10.93;;;10.13;;
14748;SDS011;7466;53.574;9.976;2023-06-19T11:16:46;10.13;;;9.32;;
14748;SDS011;7466;53.574;9.976;2023-06-19T11:19:14;10.00;;;9.20;;
14748;SDS011;7466;53.574;9.976;2023-06-19T11:21:44;9.30;;;8.45;;
14748;SDS011;7466;53.574;9.976;2023-06-19T11:24:13;10.02;;;9.35;;
14748;SDS011;7466;53.574;9.976;2023-06-19T11:26:44;9.13;;;8.45;;
14748;SDS011;7466;53.574;9.976;2023-06-19T11:29:15;9.23;;;8.60;;
14748;SDS011;7466;53.574;9.976;2023-06-19T11:31:43;9.35;;;8.75;;
14748;SDS011;7466;53.574;9.976;2023-06-19T11:34:11;10.15;;;9.30;;
14748;SDS011;7466;53.574;9.976;2023-06-19T11:36:38;9.57;;;8.98;;
14748;SDS011;7466;53.574;9.976;2023-06-19T11:39:08;8.00;;;7.50;;
14748;SDS011;7466;53.574;9.976;2023-06-19T11:41:37;8.00;;;7.50;;
14748;SDS011;7466;53.574;9.976;2023-06-19T11:44:07;8.75;;;8.07;;
14748;SDS011;7466;53.574;9.976;2023-06-19T11:46:38;8.63;;;7.78;;
14748;SDS011;7466;53.574;9.976;2023-06-19T11:49:08;7.95;;;6.97;;
14748;SDS011;7466;53.574;9.976;2023-06-19T11:51:41;8.00;;;7.55;;
14748;SDS011;7466;53.574;9.976;2023-06-19T11:54:09;7.70;;;7.10;;
14748;SDS011;7466;53.574;9.976;2023-06-19T11:56:40;7.60;;;7.00;;
14748;SDS011;7466;53.574;9.976;2023-06-19T11:59:07;8.32;;;7.32;;
14748;SDS011;7466;53.574;9.976;2023-06-19T12:01:35;8.73;;;7.53;;
14748;SDS011;7466;53.574;9.976;2023-06-19T12:04:03;7.40;;;7.00;;
14748;SDS011;7466;53.574;9.976;2023-06-19T12:06:31;7.90;;;7.25;;
14748;SDS011;7466;53.574;9.976;2023-06-19T12:09:02;8.02;;;7.40;;
14748;SDS011;7466;53.574;9.976;2023-06-19T12:11:30;8.05;;;7.30;;
14748;SDS011;7466;53.574;9.976;2023-06-19T12:14:05;8.00;;;7.40;;
14748;SDS011;7466;53.574;9.976;2023-06-19T12:16:33;8.05;;;7.45;;
14748;SDS011;7466;53.574;9.976;2023-06-19T12:19:12;7.57;;;7.07;;
14748;SDS011;7466;53.574;9.976;2023-06-19T12:21:40;7.43;;;6.93;;
14748;SDS011;7466;53.574;9.976;2023-06-19T12:24:09;7.57;;;6.70;;
14748;SDS011;7466;53.574;9.976;2023-06-19T12:26:36;7.03;;;6.60;;
14748;SDS011;7466;53.574;9.976;2023-06-19T12:29:03;7.13;;;6.63;;
14748;SDS011;7466;53.574;9.976;2023-06-19T12:31:30;6.68;;;6.28;;
14748;SDS011;7466;53.574;9.976;2023-06-19T12:33:58;8.15;;;7.43;;
14748;SDS011;7466;53.574;9.976;2023-06-19T12:36:26;8.38;;;7.57;;
14748;SDS011;7466;53.574;9.976;2023-06-19T12:38:54;7.53;;;6.93;;
14748;SDS011;7466;53.574;9.976;2023-06-19T12:41:21;7.47;;;6.80;;
14748;SDS011;7466;53.574;9.976;2023-06-19T12:43:47;8.57;;;7.13;;
14748;SDS011;7466;53.574;9.976;2023-06-19T12:46:14;8.23;;;7.45;;
14748;SDS011;7466;53.574;9.976;2023-06-19T12:48:41;7.43;;;6.70;;
14748;SDS011;7466;53.574;9.976;2023-06-19T12:51:08;7.43;;;6.80;;
14748;SDS011;7466;53.574;9.976;2023-06-19T12:53:37;7.13;;;6.60;;
14748;SDS011;7466;53.574;9.976;2023-06-19T12:56:05;7.40;;;6.88;;
14748;SDS011;7466;53.574;9.976;2023-06-19T12:58:32;7.10;;;6.68;;
14748;SDS011;7466;53.574;9.976;2023-06-19T13:01:00;9.35;;;6.80;;
14748;SDS011;7466;53.574;9.976;2023-06-19T13:03:27;7.35;;;6.85;;
14748;SDS011;7466;53.574;9.976;2023-06-19T13:05:54;7.20;;;6.80;;
14748;SDS011;7466;53.574;9.976;2023-06-19T13:08:21;6.90;;;6.32;;
14748;SDS011;7466;53.574;9.976;2023-06-19T13:10:48;7.47;;;6.80;;
14748;SDS011;7466;53.574;9.976;2023-06-19T13:13:16;9.70;;;6.68;;
14748;SDS011;7466;53.574;9.976;2023-06-19T13:15:42;6.25;;;5.60;;
14748;SDS011;7466;53.574;9.976;2023-06-19T13:18:09;6.00;;;5.35;;
14748;SDS011;7466;53.574;9.976;2023-06-19T13:20:36;5.68;;;5.30;;
14748;SDS011;7466;53.574;9.976;2023-06-19T13:23:08;5.68;;;5.10;;
14748;SDS011;7466;53.574;9.976;2023-06-19T13:25:35;5.88;;;5.32;;
14748;SDS011;7466;53.574;9.976;2023-06-19T13:28:02;5.53;;;5.22;;
14748;SDS011;7466;53.574;9.976;2023-06-19T13:30:36;5.95;;;5.45;;
14748;SDS011;7466;53.574;9.976;2023-06-19T13:33:24;5.93;;;5.47;;
14748;SDS011;7466;53.574;9.976;2023-06-19T13:36:07;5.40;;;5.03;;
14748;SDS011;7466;53.574;9.976;2023-06-19T13:38:45;5.70;;;5.18;;
14748;SDS011;7466;53.574;9.976;2023-06-19T13:41:17;6.18;;;5.35;;
14748;SDS011;7466;53.574;9.976;2023-06-19T13:43:46;6.00;;;5.47;;
14748;SDS011;7466;53.574;9.976;2023-06-19T13:46:25;5.90;;;5.50;;
14748;SDS011;7466;53.574;9.976;2023-06-19T13:48:53;6.45;;;5.78;;
14748;SDS011;7466;53.574;9.976;2023-06-19T13:51:20;6.20;;;5.60;;
14748;SDS011;7466;53.574;9.976;2023-06-19T13:53:57;5.88;;;5.47;;
14748;SDS011;7466;53.574;9.976;2023-06-19T13:56:36;5.75;;;5.32;;
14748;SDS011;7466;53.574;9.976;2023-06-19T13:59:03;5.60;;;5.13;;
14748;SDS011;7466;53.574;9.976;2023-06-19T14:01:34;5.82;;;5.32;;
14748;SDS011;7466;53.574;9.976;2023-06-19T14:04:01;7.18;;;5.20;;
14748;SDS011;7466;53.574;9.976;2023-06-19T14:06:28;6.00;;;4.88;;
14748;SDS011;7466;53.574;9.976;2023-06-19T14:08:55;6.13;;;4.65;;
14748;SDS011;7466;53.574;9.976;2023-06-19T14:11:22;5.90;;;4.88;;
14748;SDS011;7466;53.574;9.976;2023-06-19T14:13:48;4.78;;;4.35;;
14748;SDS011;7466;53.574;9.976;2023-06-19T14:16:18;5.40;;;4.93;;
14748;SDS011;7466;53.574;9.976;2023-06-19T14:18:47;5.68;;;5.18;;
14748;SDS011;7466;53.574;9.976;2023-06-19T14:21:13;5.43;;;4.78;;
14748;SDS011;7466;53.574;9.976;2023-06-19T14:23:40;5.03;;;4.72;;
14748;SDS011;7466;53.574;9.976;2023-06-19T14:26:09;6.38;;;5.07;;
14748;SDS011;7466;53.574;9.976;2023-06-19T14:28:36;5.32;;;4.93;;
14748;SDS011;7466;53.574;9.976;2023-06-19T14:31:04;7.43;;;5.07;;
14748;SDS011;7466;53.574;9.976;2023-06-19T14:33:32;6.32;;;4.97;;
14748;SDS011;7466;53.574;9.976;2023-06-19T14:36:04;5.53;;;5.10;;
14748;SDS011;7466;53.574;9.976;2023-06-19T14:38:31;5.75;;;5.05;;
14748;SDS011;7466;53.574;9.976;2023-06-19T14:41:06;5.40;;;5.10;;
14748;SDS011;7466;53.574;9.976;2023-06-19T14:43:45;5.30;;;4.90;;
14748;SDS011;7466;53.574;9.976;2023-06-19T14:46:13;5.63;;;4.93;;
14748;SDS011;7466;53.574;9.976;2023-06-19T14:48:54;5.57;;;4.32;;
14748;SDS011;7466;53.574;9.976;2023-06-19T14:51:25;5.10;;;4.55;;
14748;SDS011;7466;53.574;9.976;2023-06-19T14:53:55;5.05;;;4.60;;
14748;SDS011;7466;53.574;9.976;2023-06-19T14:56:22;6.18;;;4.80;;
14748;SDS011;7466;53.574;9.976;2023-06-19T14:58:54;4.15;;;3.95;;
14748;SDS011;7466;53.574;9.976;2023-06-19T15:01:21;5.25;;;4.85;;
14748;SDS011;7466;53.574;9.976;2023-06-19T15:03:53;5.90;;;4.78;;
14748;SDS011;7466;53.574;9.976;2023-06-19T15:06:22;6.18;;;5.68;;